createdAt,value
2022-09-17T00:01:31.312Z,9.91
2022-09-17T00:04:04.384Z,9.80
2022-09-17T00:06:35.352Z,9.76
2022-09-17T00:09:05.075Z,9.65
2022-09-17T00:11:35.362Z,9.69
2022-09-17T00:14:05.595Z,9.76
2022-09-17T00:16:40.184Z,9.80
2022-09-17T00:19:13.537Z,9.80
2022-09-17T00:21:42.310Z,9.70
2022-09-17T00:24:13.213Z,9.50
2022-09-17T00:26:40.889Z,9.39
2022-09-17T00:29:09.104Z,9.37
2022-09-17T00:31:36.797Z,9.34
2022-09-17T00:34:05.776Z,9.30
2022-09-17T00:36:36.727Z,9.39
2022-09-17T00:39:06.583Z,9.41
2022-09-17T00:41:35.709Z,9.34
2022-09-17T00:44:49.706Z,9.21
2022-09-17T00:47:22.630Z,9.19
2022-09-17T00:49:56.452Z,9.17
2022-09-17T00:53:05.341Z,9.25
2022-09-17T00:55:42.597Z,9.21
2022-09-17T00:58:13.162Z,9.23
2022-09-17T01:00:40.967Z,9.18
2022-09-17T01:03:08.831Z,9.26
2022-09-17T01:06:32.864Z,9.28
2022-09-17T01:09:18.481Z,9.28
2022-09-17T01:11:55.928Z,9.23
2022-09-17T01:14:29.028Z,9.08
2022-09-17T01:17:20.064Z,9.20
2022-09-17T01:20:25.709Z,9.24
2022-09-17T01:23:23.551Z,9.41
2022-09-17T01:26:23.565Z,9.32
2022-09-17T01:29:17.910Z,9.19
2022-09-17T01:32:20.162Z,9.26
2022-09-17T01:34:59.553Z,9.25
2022-09-17T01:37:59.905Z,9.21
2022-09-17T01:40:47.522Z,9.28
2022-09-17T01:43:45.776Z,9.37
2022-09-17T01:46:45.016Z,9.31
2022-09-17T01:49:15.555Z,9.28
2022-09-17T01:51:48.694Z,9.16
2022-09-17T01:54:25.837Z,9.09
2022-09-17T01:57:03.153Z,9.05
2022-09-17T02:00:11.322Z,9.08
2022-09-17T02:03:10.078Z,9.13
2022-09-17T02:05:44.136Z,9.19
2022-09-17T02:08:21.529Z,9.18
2022-09-17T02:11:03.605Z,9.18
2022-09-17T02:14:05.330Z,9.19
2022-09-17T02:16:37.750Z,9.28
2022-09-17T02:19:35.426Z,9.37
2022-09-17T02:22:23.285Z,9.40
2022-09-17T02:25:19.019Z,9.39
2022-09-17T02:28:03.815Z,9.34
2022-09-17T02:30:32.218Z,9.38
2022-09-17T02:33:05.588Z,9.42
2022-09-17T02:35:33.392Z,9.47
2022-09-17T02:38:01.313Z,9.41
2022-09-17T02:40:37.892Z,9.34
2022-09-17T02:43:25.340Z,9.31
2022-09-17T02:46:07.481Z,9.26
2022-09-17T02:48:49.098Z,9.21
2022-09-17T02:52:17.500Z,9.25
2022-09-17T02:55:19.135Z,9.21
2022-09-17T02:58:04.894Z,9.19
2022-09-17T03:00:33.128Z,9.18
2022-09-17T03:03:05.763Z,9.14
2022-09-17T03:05:35.609Z,8.98
2022-09-17T03:08:03.081Z,8.97
2022-09-17T03:10:33.628Z,8.83
2022-09-17T03:13:01.035Z,8.58
2022-09-17T03:15:28.479Z,8.38
2022-09-17T03:17:55.909Z,8.34
2022-09-17T03:20:23.499Z,8.23
2022-09-17T03:22:52.188Z,8.24
2022-09-17T03:25:19.479Z,8.13
2022-09-17T03:27:47.739Z,8.03
2022-09-17T03:30:15.088Z,7.96
2022-09-17T03:32:42.305Z,7.89
2022-09-17T03:35:09.674Z,7.88
2022-09-17T03:37:36.909Z,7.86
2022-09-17T03:40:05.383Z,7.80
2022-09-17T03:42:32.713Z,7.74
2022-09-17T03:45:00.007Z,7.70
2022-09-17T03:47:27.341Z,7.66
2022-09-17T03:49:54.636Z,7.57
2022-09-17T03:52:21.917Z,7.55
2022-09-17T03:54:49.363Z,7.52
2022-09-17T03:57:17.025Z,7.58
2022-09-17T03:59:44.257Z,7.68
2022-09-17T04:02:11.648Z,7.81
2022-09-17T04:04:38.939Z,8.08
2022-09-17T04:07:06.781Z,8.12
2022-09-17T04:09:35.367Z,8.07
2022-09-17T04:12:03.412Z,8.16
2022-09-17T04:14:31.022Z,8.15
2022-09-17T04:16:59.345Z,8.14
2022-09-17T04:19:26.519Z,8.13
2022-09-17T04:21:53.893Z,8.21
2022-09-17T04:24:21.129Z,8.29
2022-09-17T04:26:48.274Z,8.26
2022-09-17T04:29:15.843Z,8.29
2022-09-17T04:31:43.469Z,8.29
2022-09-17T04:34:10.937Z,8.43
2022-09-17T04:36:38.216Z,8.38
2022-09-17T04:39:05.545Z,8.34
2022-09-17T04:41:33.388Z,8.51
2022-09-17T04:44:00.680Z,8.61
2022-09-17T04:46:28.032Z,8.84
2022-09-17T04:48:55.251Z,8.86
2022-09-17T04:51:22.415Z,8.95
2022-09-17T04:53:49.568Z,9.50
2022-09-17T04:56:16.822Z,10.34
2022-09-17T04:58:44.149Z,10.61
2022-09-17T05:01:11.475Z,10.78
2022-09-17T05:03:38.710Z,10.86
2022-09-17T05:06:06.164Z,10.58
2022-09-17T05:08:33.344Z,10.63
2022-09-17T05:11:00.662Z,10.35
2022-09-17T05:13:27.913Z,10.31
2022-09-17T05:15:57.933Z,10.36
2022-09-17T05:18:26.730Z,10.42
2022-09-17T05:20:54.012Z,10.59
2022-09-17T05:23:21.282Z,10.61
2022-09-17T05:25:48.589Z,10.75
2022-09-17T05:28:15.817Z,10.74
2022-09-17T05:30:42.971Z,10.93
2022-09-17T05:33:10.726Z,11.08
2022-09-17T05:35:38.072Z,11.33
2022-09-17T05:38:07.744Z,11.47
2022-09-17T05:40:35.522Z,11.40
2022-09-17T05:43:07.465Z,11.63
2022-09-17T05:45:36.353Z,12.28
2022-09-17T05:48:07.172Z,12.70
2022-09-17T05:50:34.484Z,12.37
2022-09-17T05:53:12.000Z,12.04
2022-09-17T05:55:40.575Z,11.75
2022-09-17T05:58:13.792Z,11.56
2022-09-17T06:00:41.929Z,11.49
2022-09-17T06:03:13.655Z,11.52
2022-09-17T06:05:42.077Z,11.76
2022-09-17T06:08:10.257Z,12.01
2022-09-17T06:10:39.300Z,12.26
2022-09-17T06:13:06.572Z,12.46
2022-09-17T06:15:34.055Z,12.45
2022-09-17T06:18:01.335Z,12.28
2022-09-17T06:20:28.680Z,11.82
2022-09-17T06:22:59.363Z,12.07
2022-09-17T06:25:26.727Z,12.17
2022-09-17T06:27:54.098Z,11.83
2022-09-17T06:30:21.332Z,11.73
2022-09-17T06:32:48.588Z,11.83
2022-09-17T06:35:15.944Z,11.89
2022-09-17T06:37:43.283Z,11.96
2022-09-17T06:40:11.025Z,12.02
2022-09-17T06:42:38.397Z,12.28
2022-09-17T06:45:09.463Z,12.48
2022-09-17T06:47:38.381Z,12.67
2022-09-17T06:50:06.212Z,12.22
2022-09-17T07:05:59.308Z,12.62
2022-09-17T07:08:29.165Z,13.02
2022-09-17T07:10:58.208Z,13.45
2022-09-17T07:13:29.200Z,13.77
2022-09-17T07:15:59.501Z,13.56
2022-09-17T07:18:27.094Z,13.37
2022-09-17T07:21:00.120Z,13.44
2022-09-17T07:23:31.961Z,13.51
2022-09-17T07:26:13.637Z,13.50
2022-09-17T07:28:41.904Z,13.63
2022-09-17T07:31:15.221Z,13.63
2022-09-17T07:33:44.352Z,14.30
2022-09-17T07:36:14.419Z,14.22
2022-09-17T07:38:41.767Z,14.20
2022-09-17T07:41:15.024Z,13.65
2022-09-17T07:43:43.778Z,13.41
2022-09-17T07:46:16.673Z,13.24
2022-09-17T07:48:44.130Z,13.22
2022-09-17T07:51:19.900Z,13.08
2022-09-17T07:53:47.967Z,12.72
2022-09-17T07:56:15.376Z,12.89
2022-09-17T07:58:42.737Z,13.27
2022-09-17T08:01:18.948Z,13.65
2022-09-17T08:03:52.762Z,14.27
2022-09-17T08:06:26.060Z,14.68
2022-09-17T08:08:53.346Z,15.08
2022-09-17T08:11:44.579Z,15.15
2022-09-17T08:14:14.744Z,13.94
2022-09-17T08:16:43.108Z,13.95
2022-09-17T08:19:11.065Z,14.11
2022-09-17T08:21:38.698Z,15.39
2022-09-17T08:24:06.437Z,17.06
2022-09-17T08:26:33.749Z,17.33
2022-09-17T08:29:01.055Z,17.32
2022-09-17T08:31:30.268Z,18.13
2022-09-17T08:33:58.013Z,18.85
2022-09-17T08:36:26.620Z,18.87
2022-09-17T08:38:58.679Z,18.87
2022-09-17T08:41:40.299Z,17.88
2022-09-17T08:44:30.679Z,17.35
2022-09-17T08:47:12.409Z,17.63
2022-09-17T08:49:54.956Z,17.96
2022-09-17T08:53:06.598Z,17.19
2022-09-17T08:55:43.650Z,17.22
2022-09-17T08:58:37.918Z,16.71
2022-09-17T09:01:20.017Z,16.65
2022-09-17T09:04:31.289Z,17.06
2022-09-17T09:07:05.877Z,16.06
2022-09-17T09:09:45.744Z,15.70
2022-09-17T09:12:26.642Z,15.39
2022-09-17T09:15:19.668Z,15.52
2022-09-17T09:17:50.182Z,15.02
2022-09-17T09:20:25.637Z,15.09
2022-09-17T09:22:53.491Z,14.79
2022-09-17T09:25:31.123Z,14.95
2022-09-17T09:28:25.367Z,15.22
2022-09-17T09:31:17.135Z,15.83
2022-09-17T09:33:48.051Z,16.39
2022-09-17T09:36:21.749Z,16.51
2022-09-17T09:39:02.031Z,16.30
2022-09-17T09:41:40.529Z,17.02
2022-09-17T09:44:16.047Z,18.36
2022-09-17T09:47:43.257Z,18.48
2022-09-17T09:51:04.620Z,18.51
2022-09-17T09:53:52.096Z,19.23
2022-09-17T09:56:44.098Z,19.85
2022-09-17T09:59:15.364Z,18.74
2022-09-17T10:01:45.206Z,19.05
2022-09-17T10:04:28.227Z,19.79
2022-09-17T10:07:11.431Z,19.47
2022-09-17T10:09:45.687Z,19.45
2022-09-17T10:12:12.947Z,19.75
2022-09-17T10:14:46.290Z,18.85
2022-09-17T10:17:27.572Z,18.79
2022-09-17T10:20:08.827Z,18.15
2022-09-17T10:22:44.766Z,18.29
2022-09-17T10:25:33.834Z,17.56
2022-09-17T10:28:05.771Z,17.08
2022-09-17T10:30:33.128Z,16.56
2022-09-17T10:33:19.655Z,16.14
2022-09-17T10:36:14.754Z,16.27
2022-09-17T10:38:46.548Z,15.96
2022-09-17T10:41:19.604Z,15.54
2022-09-17T10:43:46.856Z,15.44
2022-09-17T10:46:28.798Z,15.43
2022-09-17T10:49:19.382Z,15.24
2022-09-17T10:51:47.449Z,15.02
2022-09-17T10:54:48.410Z,15.01
2022-09-17T10:58:09.285Z,14.68
2022-09-17T11:01:18.351Z,14.57
2022-09-17T11:04:29.156Z,14.44
2022-09-17T11:07:02.031Z,14.52
2022-09-17T11:09:57.514Z,14.26
2022-09-17T11:13:20.950Z,14.46
2022-09-17T11:16:12.911Z,14.50
2022-09-17T11:18:51.375Z,14.64
2022-09-17T11:21:51.413Z,15.11
2022-09-17T11:24:33.255Z,14.99
2022-09-17T11:27:12.490Z,15.06
2022-09-17T11:30:11.639Z,14.90
2022-09-17T11:33:13.365Z,15.07
2022-09-17T11:36:00.323Z,15.69
2022-09-17T11:38:43.764Z,15.88
2022-09-17T11:41:22.504Z,16.03
2022-09-17T11:44:26.392Z,15.44
2022-09-17T11:47:30.665Z,15.48
2022-09-17T11:50:28.443Z,15.21
2022-09-17T11:53:20.611Z,15.28
2022-09-17T11:56:02.635Z,15.20
2022-09-17T11:58:58.897Z,14.89
2022-09-17T12:01:40.546Z,14.94
2022-09-17T12:04:44.048Z,15.14
2022-09-17T12:07:29.055Z,15.20
2022-09-17T12:10:29.265Z,15.42
2022-09-17T12:13:20.078Z,15.46
2022-09-17T12:15:53.571Z,15.66
2022-09-17T12:19:04.500Z,15.99
2022-09-17T12:21:45.156Z,16.43
2022-09-17T12:24:15.068Z,16.39
2022-09-17T12:27:06.120Z,16.15
2022-09-17T12:30:22.637Z,16.76
2022-09-17T12:33:31.759Z,16.72
2022-09-17T12:36:34.392Z,16.27
2022-09-17T12:39:33.512Z,16.52
2022-09-17T12:42:23.148Z,16.73
2022-09-17T12:45:30.884Z,16.93
2022-09-17T12:48:03.621Z,16.60
2022-09-17T12:50:54.911Z,16.25
2022-09-17T12:53:35.331Z,15.78
2022-09-17T12:56:32.344Z,15.41
2022-09-17T12:59:15.883Z,15.31
2022-09-17T13:02:01.742Z,15.80
2022-09-17T13:05:02.067Z,15.60
2022-09-17T13:07:57.388Z,15.22
2022-09-17T13:10:48.685Z,14.91
2022-09-17T13:13:33.944Z,14.63
2022-09-17T13:16:14.440Z,14.62
2022-09-17T13:19:29.164Z,14.67
2022-09-17T13:22:18.259Z,14.38
2022-09-17T13:24:49.644Z,14.32
2022-09-17T13:27:26.785Z,14.48
2022-09-17T13:29:53.872Z,14.41
2022-09-17T13:32:33.140Z,14.64
2022-09-17T13:35:12.322Z,14.75
2022-09-17T13:37:45.151Z,14.92
2022-09-17T13:40:27.738Z,15.33
2022-09-17T13:43:02.738Z,15.36
2022-09-17T13:45:32.244Z,15.46
2022-09-17T13:48:08.261Z,15.65
2022-09-17T13:50:43.657Z,15.42
2022-09-17T13:53:16.900Z,15.51
2022-09-17T13:55:48.966Z,15.47
2022-09-17T13:58:18.931Z,15.12
2022-09-17T14:00:55.123Z,15.20
2022-09-17T14:03:31.420Z,15.20
2022-09-17T14:06:22.116Z,15.09
2022-09-17T14:08:50.504Z,14.79
2022-09-17T14:11:36.540Z,14.67
2022-09-17T14:14:04.339Z,14.37
2022-09-17T14:16:37.190Z,14.40
2022-09-17T14:19:16.903Z,14.18
2022-09-17T14:22:00.678Z,14.06
2022-09-17T14:24:44.388Z,13.85
2022-09-17T14:27:33.569Z,13.89
2022-09-17T14:30:23.596Z,13.64
2022-09-17T14:33:19.428Z,13.73
2022-09-17T14:35:53.146Z,13.79
2022-09-17T14:38:48.148Z,13.85
2022-09-17T14:41:24.461Z,14.06
2022-09-17T14:44:32.872Z,13.87
2022-09-17T14:47:08.693Z,13.94
2022-09-17T14:49:38.635Z,13.68
2022-09-17T14:52:29.228Z,13.62
2022-09-17T14:55:16.839Z,13.73
2022-09-17T14:57:51.897Z,13.75
2022-09-17T15:00:53.821Z,13.81
2022-09-17T15:03:25.464Z,13.62
2022-09-17T15:05:52.950Z,13.53
2022-09-17T15:08:28.940Z,13.54
2022-09-17T15:11:01.964Z,13.38
2022-09-17T15:13:35.548Z,13.32
2022-09-17T15:16:07.779Z,13.46
2022-09-17T15:19:03.706Z,13.34
2022-09-17T15:21:39.282Z,13.06
2022-09-17T15:24:54.253Z,13.04
2022-09-17T15:27:25.626Z,12.91
2022-09-17T15:30:24.045Z,12.74
2022-09-17T15:33:00.056Z,12.51
2022-09-17T15:35:33.563Z,12.60
2022-09-17T15:38:23.263Z,12.47
2022-09-17T15:40:51.858Z,12.51
2022-09-17T15:43:34.389Z,12.62
2022-09-17T15:46:29.150Z,12.60
2022-09-17T15:49:00.527Z,12.42
2022-09-17T15:51:35.626Z,12.40
2022-09-17T15:54:06.234Z,12.39
2022-09-17T15:56:38.711Z,12.51
2022-09-17T15:59:33.935Z,12.35
2022-09-17T16:02:02.537Z,12.28
2022-09-17T16:04:35.070Z,12.18
2022-09-17T16:07:08.185Z,12.20
2022-09-17T16:09:50.088Z,12.12
2022-09-17T16:12:23.977Z,11.99
2022-09-17T16:14:55.284Z,11.90
2022-09-17T16:17:37.439Z,11.99
2022-09-17T16:20:24.185Z,12.02
2022-09-17T16:22:53.641Z,12.07
2022-09-17T16:25:26.068Z,11.96
2022-09-17T16:27:58.254Z,11.86
2022-09-17T16:30:26.001Z,11.89
2022-09-17T16:32:54.680Z,11.89
2022-09-17T16:35:26.301Z,11.90
2022-09-17T16:37:56.675Z,11.84
2022-09-17T16:40:28.213Z,11.76
2022-09-17T16:42:55.586Z,11.75
2022-09-17T16:45:28.055Z,11.74
2022-09-17T16:47:56.791Z,11.70
2022-09-17T16:50:24.113Z,11.70
2022-09-17T16:52:51.505Z,11.71
2022-09-17T16:55:20.035Z,11.75
2022-09-17T16:57:47.559Z,11.65
2022-09-17T17:00:21.141Z,11.65
2022-09-17T17:02:55.539Z,11.69
2022-09-17T17:05:24.740Z,11.69
2022-09-17T17:07:52.569Z,11.73
2022-09-17T17:10:20.365Z,11.57
2022-09-17T17:12:47.795Z,11.63
2022-09-17T17:15:15.254Z,11.61
2022-09-17T17:17:42.571Z,11.49
2022-09-17T17:20:10.459Z,11.57
2022-09-17T17:22:39.495Z,11.52
2022-09-17T17:25:07.987Z,11.37
2022-09-17T17:27:35.776Z,11.40
2022-09-17T17:30:06.632Z,11.42
2022-09-17T17:32:36.474Z,11.45
2022-09-17T17:35:04.896Z,11.41
2022-09-17T17:37:32.238Z,11.41
2022-09-17T17:40:00.134Z,11.34
2022-09-17T17:42:27.584Z,11.31
2022-09-17T17:44:55.775Z,11.31
2022-09-17T17:47:23.173Z,11.37
2022-09-17T17:49:50.487Z,11.26
2022-09-17T17:52:17.748Z,11.22
2022-09-17T17:54:44.945Z,11.22
2022-09-17T17:57:12.229Z,11.27
2022-09-17T17:59:39.546Z,11.18
2022-09-17T18:02:07.481Z,11.21
2022-09-17T18:04:34.874Z,11.16
2022-09-17T18:07:02.048Z,11.11
2022-09-17T18:09:30.229Z,11.04
2022-09-17T18:11:57.563Z,11.11
2022-09-17T18:14:24.832Z,11.14
2022-09-17T18:18:04.354Z,11.07
2022-09-17T18:20:33.124Z,11.00
2022-09-17T18:23:00.441Z,10.95
2022-09-17T18:25:28.657Z,10.94
2022-09-17T18:27:56.215Z,11.07
2022-09-17T18:30:23.469Z,11.03
2022-09-17T18:32:50.828Z,11.07
2022-09-17T18:43:57.769Z,10.96
2022-09-17T18:50:14.495Z,10.94
2022-09-17T18:52:41.853Z,10.79
2022-09-17T18:55:09.624Z,10.81
2022-09-17T18:57:36.930Z,10.77
2022-09-17T19:00:08.160Z,10.84
2022-09-17T19:02:35.640Z,10.79
2022-09-17T19:05:02.981Z,10.92
2022-09-17T19:07:30.263Z,10.94
2022-09-17T19:09:57.879Z,10.96
2022-09-17T19:12:25.191Z,10.97
2022-09-17T19:14:52.601Z,10.93
2022-09-17T19:17:19.930Z,10.90
2022-09-17T19:19:47.325Z,10.99
2022-09-17T19:22:14.715Z,11.05
2022-09-17T19:24:42.115Z,10.97
2022-09-17T19:27:09.488Z,10.96
2022-09-17T19:29:37.106Z,10.92
2022-09-17T19:32:05.751Z,10.82
2022-09-17T19:34:33.276Z,10.81
2022-09-17T19:37:00.569Z,10.80
2022-09-17T19:39:27.893Z,10.55
2022-09-17T19:41:55.146Z,10.60
2022-09-17T19:44:23.826Z,10.57
2022-09-17T19:46:53.073Z,10.57
2022-09-17T19:49:20.491Z,10.55
2022-09-17T19:51:47.855Z,10.57
2022-09-17T19:54:15.192Z,10.61
2022-09-17T19:56:42.445Z,10.57
2022-09-17T19:59:09.907Z,10.49
2022-09-17T20:01:37.351Z,10.49
2022-09-17T20:04:04.726Z,10.57
2022-09-17T20:06:34.477Z,10.60
2022-09-17T20:09:02.275Z,10.57
2022-09-17T20:11:29.648Z,10.59
2022-09-17T20:14:03.089Z,10.58
2022-09-17T20:16:30.890Z,10.59
2022-09-17T20:18:58.251Z,10.49
2022-09-17T20:21:29.521Z,10.35
2022-09-17T20:23:57.570Z,10.38
2022-09-17T20:26:26.341Z,10.45
2022-09-17T20:28:54.929Z,10.45
2022-09-17T20:31:33.394Z,10.30
2022-09-17T20:34:03.735Z,10.27
2022-09-17T20:36:33.650Z,10.24
2022-09-17T20:39:23.198Z,10.16
2022-09-17T20:41:48.393Z,10.29
2022-09-17T20:44:15.670Z,10.27
2022-09-17T20:46:43.013Z,10.33
2022-09-17T20:49:10.347Z,10.25
2022-09-17T20:51:37.734Z,10.04
2022-09-17T20:54:05.788Z,10.18
2022-09-17T20:56:35.013Z,10.19
2022-09-17T20:59:42.091Z,10.28
2022-09-17T21:02:11.018Z,10.24
2022-09-17T21:04:38.288Z,10.26
2022-09-17T21:07:05.602Z,10.30
2022-09-17T21:09:32.798Z,10.31
2022-09-17T21:12:00.131Z,10.39
2022-09-17T21:14:27.455Z,10.36
2022-09-17T21:16:54.889Z,10.34
2022-09-17T21:19:24.270Z,10.39
2022-09-17T21:21:54.484Z,10.41
2022-09-17T21:24:21.931Z,10.34
2022-09-17T21:26:51.421Z,10.38
2022-09-17T21:29:18.830Z,10.38
2022-09-17T21:31:46.271Z,10.44
2022-09-17T21:34:15.004Z,10.37
2022-09-17T21:36:44.640Z,10.46
2022-09-17T21:39:15.587Z,10.40
2022-09-17T21:41:45.072Z,10.34
2022-09-17T21:44:12.738Z,10.33
2022-09-17T21:46:41.471Z,10.37
2022-09-17T21:49:09.261Z,10.24
2022-09-17T21:51:39.739Z,10.32
2022-09-17T21:54:16.938Z,10.33
2022-09-17T21:56:45.565Z,10.32
2022-09-17T21:59:15.356Z,10.30
2022-09-17T22:01:47.321Z,10.23
2022-09-17T22:04:18.245Z,10.32
2022-09-17T22:06:48.905Z,10.36
2022-09-17T22:09:18.651Z,10.25
2022-09-17T22:11:46.022Z,10.20
2022-09-17T22:14:22.628Z,10.18
2022-09-17T22:16:53.628Z,10.30
2022-09-17T22:19:22.644Z,10.36
2022-09-17T22:21:53.176Z,10.37
2022-09-17T22:24:21.854Z,10.30
2022-09-17T22:26:56.958Z,10.05
2022-09-17T22:29:26.471Z,10.05
2022-09-17T22:31:54.174Z,10.11
2022-09-17T22:34:23.450Z,10.05
2022-09-17T22:36:51.104Z,10.03
2022-09-17T22:39:21.965Z,9.92
2022-09-17T22:41:50.644Z,9.84
2022-09-17T22:44:20.088Z,9.95
2022-09-17T22:46:50.951Z,9.71
2022-09-17T22:49:19.314Z,9.70
2022-09-17T22:51:47.343Z,9.64
2022-09-17T22:54:17.201Z,9.66
2022-09-17T22:56:46.087Z,9.62
2022-09-17T22:59:13.487Z,9.51
2022-09-17T23:01:41.623Z,9.57
2022-09-17T23:04:09.475Z,9.55
2022-09-17T23:06:39.841Z,9.50
2022-09-17T23:09:07.448Z,9.49
2022-09-17T23:11:38.370Z,9.46
2022-09-17T23:14:10.208Z,9.44
2022-09-17T23:16:47.674Z,9.53
2022-09-17T23:19:18.205Z,9.63
2022-09-17T23:21:45.805Z,9.64
2022-09-17T23:24:22.180Z,9.52
2022-09-17T23:26:50.452Z,9.56
2022-09-17T23:29:17.908Z,9.58
2022-09-17T23:31:45.643Z,9.62
2022-09-17T23:34:13.080Z,9.57
2022-09-17T23:36:40.736Z,9.56
2022-09-17T23:39:11.253Z,9.50
2022-09-17T23:41:43.236Z,9.53
2022-09-17T23:44:15.423Z,9.54
2022-09-17T23:46:45.735Z,9.59
2022-09-17T23:49:14.405Z,9.55
2022-09-17T23:51:41.994Z,9.42
2022-09-17T23:54:09.245Z,9.39
2022-09-17T23:56:36.856Z,9.51
2022-09-17T23:59:04.917Z,9.47
